This is the latest recevied weather packets stored in our database for station/object KO5MO-11. If no packets are shown the sender has not sent any weather packets the latest 10 day(s).
| Time | Temp. | Humidity | Pressure | Rain* | Wind** | Luminosity | Snow |
|---|---|---|---|---|---|---|---|
| 1777791872 | 23.89° C | 36% | 1009.4 hPa | - | - | 755 W/m² | - |
| 1777791272 | 26.11° C | 34% | 1009.3 hPa | - | - | 790 W/m² | - |
| 1777790672 | 25.56° C | 37% | 1009.1 hPa | - | - | 785 W/m² | - |
| 1777790072 | 23.33° C | 36% | 1009.1 hPa | - | - | 746 W/m² | - |
| 1777789472 | 23.89° C | 36% | 1009 hPa | - | - | 755 W/m² | - |
| 1777788872 | 25.56° C | 35% | 1009.1 hPa | - | - | 783 W/m² | - |
| 1777788272 | 25° C | 37% | 1009.1 hPa | - | - | 778 W/m² | - |
| 1777787672 | 23.33° C | 36% | 1008.8 hPa | - | - | 749 W/m² | - |
| 1777787072 | 24.44° C | 35% | 1008.8 hPa | - | - | 761 W/m² | - |
| 1777786472 | 26.67° C | 34% | 1008.7 hPa | - | - | 800 W/m² | - |
| 1777785872 | 24.44° C | 40% | 1008.6 hPa | - | - | 766 W/m² | - |
| 1777785272 | 23.89° C | 36% | 1008.7 hPa | - | - | 752 W/m² | - |
| 1777784672 | 24.44° C | 35% | 1008.7 hPa | - | - | 766 W/m² | - |
| 1777784072 | 25.56° C | 36% | 1008.8 hPa | - | - | 789 W/m² | - |
| 1777783472 | 23.33° C | 38% | 1008.6 hPa | - | - | 749 W/m² | - |
| 1777782872 | 23.89° C | 36% | 1008.5 hPa | - | - | 751 W/m² | - |
| 1777782272 | 25° C | 35% | 1008.3 hPa | - | - | 775 W/m² | - |
| 1777781672 | 25.56° C | 37% | 1008.3 hPa | - | - | 786 W/m² | - |
| 1777781072 | 23.33° C | 37% | 1008.1 hPa | - | - | 746 W/m² | - |
| 1777780472 | 23.89° C | 37% | 1008 hPa | - | - | 753 W/m² | - |
| 1777779872 | 24.44° C | 36% | 1007.9 hPa | - | - | 769 W/m² | - |
| 1777779272 | 26.11° C | 36% | 1007.9 hPa | - | - | 794 W/m² | - |
| 1777778672 | 23.89° C | 40% | 1007.7 hPa | - | - | 757 W/m² | - |
| 1777778072 | 23.33° C | 37% | 1007.6 hPa | - | - | 749 W/m² | - |
| 1777777472 | 24.44° C | 36% | 1007.6 hPa | - | - | 762 W/m² | - |
* Rain since midnight (hover to see other rain measurements)
** Current wind speed in m/s (hover to see current wind gust speed)